createdAt,value
2018-12-23T00:01:02.803Z,94.48
2018-12-23T00:03:33.521Z,94.23
2018-12-23T00:06:04.244Z,94.07
2018-12-23T00:08:34.948Z,94.19
2018-12-23T00:11:05.790Z,93.76
2018-12-23T00:13:36.533Z,93.87
2018-12-23T00:16:07.276Z,93.46
2018-12-23T00:18:38.061Z,93.70
2018-12-23T00:21:08.792Z,93.27
2018-12-23T00:23:39.501Z,93.12
2018-12-23T00:26:10.837Z,92.53
2018-12-23T00:28:41.838Z,93.31
2018-12-23T00:31:12.595Z,92.76
2018-12-23T00:33:43.439Z,92.76
2018-12-23T00:36:14.198Z,92.60
2018-12-23T00:38:44.915Z,92.99
2018-12-23T00:41:15.634Z,93.22
2018-12-23T00:43:46.366Z,93.02
2018-12-23T00:46:17.111Z,92.89
2018-12-23T00:48:47.824Z,92.22
2018-12-23T00:51:18.545Z,92.56
2018-12-23T00:53:49.389Z,93.26
2018-12-23T00:56:20.137Z,91.89
2018-12-23T00:58:50.932Z,92.10
2018-12-23T01:01:21.714Z,91.92
2018-12-23T01:03:52.416Z,91.78
2018-12-23T01:06:23.314Z,91.50
2018-12-23T01:08:54.057Z,91.89
2018-12-23T01:11:24.752Z,92.03
2018-12-23T01:14:05.666Z,91.99
2018-12-23T01:16:36.453Z,92.00
2018-12-23T01:19:07.152Z,93.00
2018-12-23T01:21:37.856Z,93.46
2018-12-23T01:24:08.541Z,93.99
2018-12-23T01:26:39.242Z,93.27
2018-12-23T01:29:10.440Z,93.20
2018-12-23T01:31:41.328Z,93.02
2018-12-23T01:34:12.120Z,93.07
2018-12-23T01:36:42.828Z,94.11
2018-12-23T01:39:13.513Z,93.95
2018-12-23T01:41:44.297Z,94.49
2018-12-23T01:44:15.069Z,94.41
2018-12-23T01:46:45.870Z,95.26
2018-12-23T01:49:16.834Z,93.91
2018-12-23T01:51:47.626Z,94.54
2018-12-23T01:54:18.392Z,93.65
2018-12-23T01:56:49.117Z,94.73
2018-12-23T01:59:19.931Z,93.66
2018-12-23T02:01:50.631Z,93.73
2018-12-23T02:04:21.326Z,93.98
2018-12-23T02:06:52.287Z,94.51
2018-12-23T02:09:23.085Z,94.17
2018-12-23T02:11:53.794Z,94.20
2018-12-23T02:14:24.473Z,94.50
2018-12-23T02:16:55.253Z,93.92
2018-12-23T02:19:26.020Z,94.36
2018-12-23T02:21:56.814Z,94.91
2018-12-23T02:24:27.495Z,94.73
2018-12-23T02:26:58.204Z,94.41
2018-12-23T02:29:28.980Z,94.81
2018-12-23T02:31:59.668Z,94.68
2018-12-23T02:34:30.353Z,94.42
2018-12-23T02:37:01.157Z,94.67
2018-12-23T02:39:31.885Z,94.11
2018-12-23T02:42:02.576Z,93.96
2018-12-23T02:44:33.333Z,93.90
2018-12-23T02:47:04.037Z,94.08
2018-12-23T02:49:34.717Z,93.59
2018-12-23T02:52:05.450Z,93.70
2018-12-23T02:54:36.140Z,94.22
2018-12-23T02:57:06.937Z,94.90
2018-12-23T02:59:37.648Z,94.04
2018-12-23T03:02:08.357Z,93.98
2018-12-23T03:04:39.228Z,93.51
2018-12-23T03:07:11.159Z,93.39
2018-12-23T03:09:42.200Z,93.49
2018-12-23T03:12:12.898Z,93.97
2018-12-23T03:14:43.657Z,93.43
2018-12-23T03:17:14.380Z,93.86
2018-12-23T03:19:45.192Z,93.67
2018-12-23T03:22:17.001Z,94.42
2018-12-23T03:24:47.692Z,94.55
2018-12-23T03:27:18.404Z,94.08
2018-12-23T03:29:49.122Z,94.73
2018-12-23T03:32:19.846Z,95.80
2018-12-23T03:34:50.653Z,96.03
2018-12-23T03:37:21.409Z,95.61
2018-12-23T03:39:52.132Z,96.16
2018-12-23T03:42:22.848Z,95.83
2018-12-23T03:44:53.584Z,95.52
2018-12-23T03:47:24.374Z,94.87
2018-12-23T03:49:55.081Z,95.10
2018-12-23T03:52:25.868Z,95.21
2018-12-23T03:54:56.585Z,95.14
2018-12-23T03:57:27.358Z,95.08
2018-12-23T03:59:58.070Z,94.84
2018-12-23T04:02:28.792Z,94.58
2018-12-23T04:04:59.508Z,94.12
2018-12-23T04:07:30.229Z,94.77
2018-12-23T04:10:00.950Z,95.12
2018-12-23T04:12:31.665Z,95.05
2018-12-23T04:15:02.397Z,95.34
2018-12-23T04:17:33.696Z,95.75
2018-12-23T04:20:04.620Z,95.94
2018-12-23T04:22:35.343Z,96.69
2018-12-23T04:25:06.345Z,96.06
2018-12-23T04:27:37.043Z,97.00
2018-12-23T04:30:07.952Z,96.73
2018-12-23T04:32:38.672Z,96.42
2018-12-23T04:35:09.396Z,96.16
2018-12-23T04:37:40.213Z,96.73
2018-12-23T04:40:11.664Z,96.25
2018-12-23T04:42:42.439Z,96.15
2018-12-23T04:45:13.162Z,96.66
2018-12-23T04:47:43.863Z,96.68
2018-12-23T04:50:14.612Z,96.11
2018-12-23T04:52:45.349Z,96.88
2018-12-23T04:55:16.148Z,96.29
2018-12-23T04:57:46.857Z,96.24
2018-12-23T05:00:17.577Z,96.82
2018-12-23T05:02:48.331Z,96.59
2018-12-23T05:05:19.045Z,96.67
2018-12-23T05:07:49.760Z,96.15
2018-12-23T05:10:20.522Z,95.62
2018-12-23T05:12:51.229Z,95.90
2018-12-23T05:15:21.969Z,95.75
2018-12-23T05:17:52.685Z,95.24
2018-12-23T05:20:23.436Z,95.31
2018-12-23T05:22:54.156Z,95.43
2018-12-23T05:25:24.893Z,95.82
2018-12-23T05:27:55.625Z,95.63
2018-12-23T05:30:26.374Z,95.81
2018-12-23T05:32:57.080Z,95.87
2018-12-23T05:35:28.116Z,95.80
2018-12-23T05:37:58.837Z,95.91
2018-12-23T05:40:29.567Z,96.67
2018-12-23T05:43:00.288Z,96.84
2018-12-23T05:45:31.109Z,96.95
2018-12-23T05:48:08.430Z,96.55
2018-12-23T05:50:39.148Z,97.53
2018-12-23T05:53:10.729Z,96.95
2018-12-23T05:55:40.046Z,96.26
2018-12-23T05:58:10.767Z,96.11
2018-12-23T06:00:41.572Z,96.33
2018-12-23T06:03:12.287Z,96.70
2018-12-23T06:05:43.012Z,95.87
2018-12-23T06:08:13.729Z,96.43
2018-12-23T06:10:44.440Z,96.18
2018-12-23T06:13:15.163Z,97.00
2018-12-23T06:15:45.889Z,95.78
2018-12-23T06:18:16.604Z,97.32
2018-12-23T06:20:47.331Z,96.70
2018-12-23T06:23:18.041Z,96.31
2018-12-23T06:25:48.770Z,96.62
2018-12-23T06:28:19.488Z,96.70
2018-12-23T06:30:50.195Z,96.11
2018-12-23T06:33:20.937Z,95.98
2018-12-23T06:35:51.664Z,96.06
2018-12-23T06:38:22.401Z,96.06
2018-12-23T06:40:53.113Z,95.98
2018-12-23T06:43:23.855Z,95.75
2018-12-23T06:45:54.581Z,96.28
2018-12-23T06:48:25.305Z,95.95
2018-12-23T06:50:56.019Z,96.29
2018-12-23T06:53:26.845Z,96.45
2018-12-23T06:55:57.575Z,96.22
2018-12-23T06:58:28.299Z,95.68
2018-12-23T07:00:58.999Z,96.53
2018-12-23T07:03:29.720Z,95.91
2018-12-23T07:06:00.415Z,95.73
2018-12-23T07:08:31.129Z,96.11
2018-12-23T07:11:01.966Z,95.31
2018-12-23T07:13:32.673Z,95.97
2018-12-23T07:16:03.386Z,96.03
2018-12-23T07:18:34.118Z,95.25
2018-12-23T07:21:04.912Z,95.33
2018-12-23T07:23:35.656Z,95.17
2018-12-23T07:26:06.377Z,95.14
2018-12-23T07:28:37.083Z,95.34
2018-12-23T07:31:07.805Z,95.21
2018-12-23T07:33:38.519Z,95.03
2018-12-23T07:36:09.246Z,94.68
2018-12-23T07:38:40.003Z,95.33
2018-12-23T07:41:10.711Z,95.69
2018-12-23T07:43:41.450Z,94.99
2018-12-23T07:46:12.290Z,95.30
2018-12-23T07:48:43.146Z,94.54
2018-12-23T07:51:13.859Z,95.26
2018-12-23T07:53:44.596Z,95.52
2018-12-23T07:56:15.324Z,95.31
2018-12-23T07:58:46.048Z,94.96
2018-12-23T08:01:16.759Z,95.52
2018-12-23T08:03:47.489Z,95.34
2018-12-23T08:06:18.187Z,94.90
2018-12-23T08:08:48.906Z,95.26
2018-12-23T08:11:19.652Z,95.29
2018-12-23T08:13:50.453Z,95.24
2018-12-23T08:16:21.203Z,95.12
2018-12-23T08:18:51.927Z,94.92
2018-12-23T08:21:22.729Z,94.49
2018-12-23T08:23:53.448Z,94.58
2018-12-23T08:26:24.157Z,94.02
2018-12-23T08:28:54.892Z,94.74
2018-12-23T08:31:25.609Z,93.87
2018-12-23T08:33:56.335Z,94.18
2018-12-23T08:36:27.057Z,94.97
2018-12-23T08:38:57.787Z,94.85
2018-12-23T08:41:28.495Z,94.55
2018-12-23T08:43:59.229Z,93.74
2018-12-23T08:46:29.949Z,93.87
2018-12-23T08:49:00.673Z,93.93
2018-12-23T08:51:31.394Z,93.62
2018-12-23T08:54:02.213Z,93.50
2018-12-23T08:56:32.925Z,93.81
2018-12-23T08:59:03.666Z,93.76
2018-12-23T09:01:34.408Z,93.70
2018-12-23T09:04:05.325Z,93.93
2018-12-23T09:06:36.043Z,94.04
2018-12-23T09:09:07.564Z,94.42
2018-12-23T09:11:42.788Z,93.68
2018-12-23T09:14:10.959Z,93.92
2018-12-23T09:16:41.669Z,94.03
2018-12-23T09:19:12.380Z,93.80
2018-12-23T09:21:43.098Z,94.14
2018-12-23T09:24:13.819Z,94.37
2018-12-23T09:26:44.527Z,94.19
2018-12-23T09:29:15.255Z,94.18
2018-12-23T09:31:45.964Z,94.08
2018-12-23T09:34:16.673Z,93.33
2018-12-23T09:36:47.840Z,94.52
2018-12-23T09:39:18.729Z,93.68
2018-12-23T09:41:49.423Z,92.96
2018-12-23T09:44:20.156Z,93.39
2018-12-23T09:46:50.872Z,94.03
2018-12-23T09:49:21.616Z,94.24
2018-12-23T09:51:52.419Z,93.51
2018-12-23T09:54:23.208Z,93.38
2018-12-23T09:56:53.953Z,93.15
2018-12-23T09:59:24.671Z,93.15
2018-12-23T10:01:55.393Z,92.47
2018-12-23T10:04:26.128Z,92.95
2018-12-23T10:06:56.876Z,93.62
2018-12-23T10:09:27.611Z,93.83
2018-12-23T10:11:58.319Z,93.20
2018-12-23T10:14:29.084Z,92.69
2018-12-23T10:16:59.786Z,92.89
2018-12-23T10:19:30.512Z,92.37
2018-12-23T10:22:01.275Z,93.35
2018-12-23T10:24:32.180Z,93.22
2018-12-23T10:27:02.906Z,92.66
2018-12-23T10:29:33.635Z,93.11
2018-12-23T10:32:04.442Z,92.66
2018-12-23T10:34:35.156Z,92.71
2018-12-23T10:37:05.875Z,92.49
2018-12-23T10:39:36.590Z,92.39
2018-12-23T10:42:07.312Z,93.27
2018-12-23T10:44:38.123Z,92.48
2018-12-23T10:47:08.933Z,92.79
2018-12-23T10:49:39.648Z,93.70
2018-12-23T10:52:10.609Z,93.11
2018-12-23T10:54:41.311Z,93.49
2018-12-23T10:57:12.962Z,92.88
2018-12-23T10:59:43.671Z,93.27
2018-12-23T11:02:14.384Z,92.58
2018-12-23T11:04:45.103Z,92.75
2018-12-23T11:07:15.828Z,92.53
2018-12-23T11:09:46.624Z,92.47
2018-12-23T11:12:17.330Z,93.03
2018-12-23T11:14:48.081Z,91.65
2018-12-23T11:17:18.796Z,91.61
2018-12-23T11:19:49.548Z,91.94
2018-12-23T11:22:20.320Z,91.73
2018-12-23T11:24:51.119Z,90.60
2018-12-23T11:27:21.859Z,92.09
2018-12-23T11:29:52.577Z,91.44
2018-12-23T11:32:23.301Z,91.09
2018-12-23T11:34:54.027Z,91.42
2018-12-23T11:37:24.857Z,91.26
2018-12-23T11:39:55.599Z,90.77
2018-12-23T11:42:26.313Z,90.82
2018-12-23T11:44:57.032Z,91.36
2018-12-23T11:47:27.760Z,90.79
2018-12-23T11:49:58.486Z,91.16
2018-12-23T11:52:29.206Z,91.38
2018-12-23T11:55:00.852Z,90.47
2018-12-23T11:57:31.568Z,90.67
2018-12-23T12:00:02.279Z,90.58
2018-12-23T12:02:33.015Z,90.39
2018-12-23T12:05:03.735Z,89.85
2018-12-23T12:07:34.467Z,90.03
2018-12-23T12:10:06.016Z,89.61
2018-12-23T12:12:36.996Z,89.36
2018-12-23T12:15:08.850Z,89.48
2018-12-23T12:17:39.559Z,89.24
2018-12-23T12:20:10.366Z,90.02
2018-12-23T12:22:41.350Z,89.09
2018-12-23T12:25:12.213Z,88.52
2018-12-23T12:27:42.950Z,89.39
2018-12-23T12:30:13.695Z,89.03
2018-12-23T12:32:44.415Z,88.83
2018-12-23T12:35:15.150Z,89.76
2018-12-23T12:37:45.873Z,88.46
2018-12-23T12:40:16.604Z,88.97
2018-12-23T12:42:47.329Z,89.10
2018-12-23T12:45:18.054Z,89.73
2018-12-23T12:47:48.779Z,90.42
2018-12-23T12:50:19.525Z,90.57
2018-12-23T12:52:50.277Z,91.55
2018-12-23T12:55:21.034Z,91.70
2018-12-23T12:57:51.763Z,93.21
2018-12-23T13:00:22.496Z,92.72
2018-12-23T13:02:53.245Z,94.03
2018-12-23T13:05:23.975Z,93.32
2018-12-23T13:07:54.690Z,93.21
2018-12-23T13:10:25.425Z,92.55
2018-12-23T13:12:56.145Z,92.76
2018-12-23T13:15:26.886Z,93.14
2018-12-23T13:17:57.607Z,93.73
2018-12-23T13:20:28.398Z,93.13
2018-12-23T13:22:59.234Z,92.31
2018-12-23T13:25:29.975Z,92.54
2018-12-23T13:28:00.710Z,92.69
2018-12-23T13:30:31.588Z,92.53
2018-12-23T13:33:02.307Z,93.15
2018-12-23T13:35:33.032Z,92.90
2018-12-23T13:38:03.768Z,92.35
2018-12-23T13:43:22.619Z,93.05
2018-12-23T13:46:12.378Z,92.94
2018-12-23T13:49:03.715Z,92.81
2018-12-23T13:52:55.825Z,92.99
2018-12-23T13:55:47.092Z,93.73
2018-12-23T13:58:56.479Z,93.60
2018-12-23T14:01:48.948Z,93.62
2018-12-23T14:05:13.674Z,93.84
2018-12-23T14:08:04.753Z,93.45
2018-12-23T14:10:52.118Z,93.47
2018-12-23T14:13:22.841Z,93.59
2018-12-23T14:15:53.568Z,93.61
2018-12-23T14:18:24.283Z,94.35
2018-12-23T14:20:54.993Z,93.94
2018-12-23T14:23:25.707Z,94.90
2018-12-23T14:25:56.428Z,94.69
2018-12-23T14:28:27.147Z,95.03
2018-12-23T14:30:57.859Z,94.69
2018-12-23T14:33:28.575Z,93.91
2018-12-23T14:35:59.328Z,93.62
2018-12-23T14:38:30.039Z,94.07
2018-12-23T14:41:00.756Z,93.59
2018-12-23T14:43:31.548Z,93.87
2018-12-23T14:46:02.259Z,93.58
2018-12-23T14:48:32.988Z,94.02
2018-12-23T14:51:03.693Z,94.16
2018-12-23T14:53:34.428Z,94.42
2018-12-23T14:56:05.330Z,94.19
2018-12-23T14:58:37.783Z,93.74
2018-12-23T15:01:09.321Z,93.36
2018-12-23T15:03:40.040Z,93.15
2018-12-23T15:06:10.773Z,93.86
2018-12-23T15:08:41.483Z,93.63
2018-12-23T15:11:12.188Z,94.23
2018-12-23T15:13:42.901Z,94.51
2018-12-23T15:16:14.644Z,94.46
2018-12-23T15:18:46.820Z,95.13
2018-12-23T15:21:17.557Z,94.58
2018-12-23T15:23:48.280Z,95.00
2018-12-23T15:26:19.037Z,95.42
2018-12-23T15:28:49.778Z,94.90
2018-12-23T15:31:20.503Z,94.69
2018-12-23T15:33:51.261Z,94.22
2018-12-23T15:36:23.355Z,95.06
2018-12-23T15:38:54.062Z,94.09
2018-12-23T15:41:25.695Z,94.36
2018-12-23T15:43:56.416Z,94.39
2018-12-23T15:46:27.135Z,94.43
2018-12-23T15:48:58.040Z,94.59
2018-12-23T15:51:28.743Z,94.31
2018-12-23T15:53:59.455Z,94.79
2018-12-23T15:56:30.163Z,94.77
2018-12-23T15:59:00.929Z,94.67
2018-12-23T16:01:31.737Z,95.14
2018-12-23T16:04:02.518Z,95.31
2018-12-23T16:06:33.224Z,94.77
2018-12-23T16:09:05.127Z,95.00
2018-12-23T16:11:35.836Z,95.75
2018-12-23T16:14:06.555Z,94.77
2018-12-23T16:16:37.265Z,94.30
2018-12-23T16:19:09.511Z,94.69
2018-12-23T16:21:40.237Z,95.18
2018-12-23T16:24:11.016Z,95.20
2018-12-23T16:26:41.851Z,95.28
2018-12-23T16:29:12.563Z,94.94
2018-12-23T16:31:43.276Z,94.25
2018-12-23T16:34:14.076Z,94.76
2018-12-23T16:36:44.794Z,94.71
2018-12-23T16:39:15.507Z,94.70
2018-12-23T16:41:46.309Z,95.09
2018-12-23T16:44:17.102Z,95.54
2018-12-23T16:46:47.809Z,95.80
2018-12-23T16:49:18.533Z,95.31
2018-12-23T16:51:49.249Z,95.31
2018-12-23T16:54:19.983Z,95.11
2018-12-23T16:56:50.696Z,95.39
2018-12-23T16:59:21.533Z,95.28
2018-12-23T17:01:52.271Z,95.83
2018-12-23T17:04:25.919Z,95.68
2018-12-23T17:06:56.619Z,95.67
2018-12-23T17:09:27.353Z,95.80
2018-12-23T17:11:58.061Z,95.75
2018-12-23T17:14:28.859Z,95.75
2018-12-23T17:16:59.563Z,96.35
2018-12-23T17:19:30.296Z,96.51
2018-12-23T17:22:01.093Z,95.86
2018-12-23T17:24:31.825Z,96.43
2018-12-23T17:27:02.519Z,97.00
2018-12-23T17:29:33.236Z,96.32
2018-12-23T17:32:03.949Z,97.04
2018-12-23T17:34:34.688Z,96.33
2018-12-23T17:37:05.500Z,96.31
2018-12-23T17:39:36.229Z,97.15
2018-12-23T17:42:06.938Z,97.20
2018-12-23T17:44:37.661Z,97.47
2018-12-23T17:47:09.667Z,97.53
2018-12-23T17:49:40.393Z,97.18
2018-12-23T17:52:11.146Z,97.44
2018-12-23T17:54:41.866Z,97.36
2018-12-23T17:57:12.563Z,97.35
2018-12-23T17:59:43.296Z,97.39
2018-12-23T18:02:14.109Z,97.67
2018-12-23T18:04:45.000Z,98.04
2018-12-23T18:07:15.723Z,98.41
2018-12-23T18:09:46.440Z,98.49
2018-12-23T18:12:17.226Z,98.79
2018-12-23T18:14:47.917Z,99.18
2018-12-23T18:17:18.717Z,99.35
2018-12-23T18:19:49.451Z,100.00
2018-12-23T18:22:20.214Z,99.46
2018-12-23T18:24:51.207Z,99.82
2018-12-23T18:27:21.946Z,99.64
2018-12-23T18:29:52.667Z,100.00
2018-12-23T18:32:23.392Z,100.00
2018-12-23T18:34:54.131Z,100.00
2018-12-23T18:37:24.842Z,100.00
2018-12-23T18:39:55.552Z,100.00
2018-12-23T18:42:26.281Z,100.00
2018-12-23T18:44:57.016Z,100.00
2018-12-23T18:47:27.744Z,100.00
2018-12-23T18:49:58.478Z,100.00
2018-12-23T18:52:29.283Z,100.00
2018-12-23T18:55:00.091Z,100.00
2018-12-23T18:57:37.479Z,100.00
2018-12-23T19:00:10.197Z,100.00
2018-12-23T19:02:48.900Z,100.00
2018-12-23T19:05:19.712Z,100.00
2018-12-23T19:07:55.264Z,100.00
2018-12-23T19:16:58.318Z,100.00
2018-12-23T19:20:14.545Z,100.00
2018-12-23T19:23:36.478Z,100.00
2018-12-23T19:27:03.341Z,100.00
2018-12-23T19:30:04.150Z,100.00
2018-12-23T19:33:17.882Z,100.00
2018-12-23T19:37:01.369Z,100.00
2018-12-23T19:40:40.497Z,100.00
2018-12-23T19:43:57.441Z,100.00
2018-12-23T19:47:35.555Z,100.00
2018-12-23T19:51:13.243Z,100.00
2018-12-23T19:55:01.820Z,100.00
2018-12-23T19:58:26.266Z,100.00
2018-12-23T20:01:22.659Z,100.00
2018-12-23T20:04:34.721Z,100.00
2018-12-23T20:08:16.413Z,100.00
2018-12-23T20:11:35.277Z,100.00
2018-12-23T20:14:56.491Z,100.00
2018-12-23T20:18:46.352Z,100.00
2018-12-23T20:21:48.246Z,100.00
2018-12-23T20:25:07.098Z,100.00
2018-12-23T20:28:21.442Z,100.00
2018-12-23T20:31:49.728Z,100.00
2018-12-23T20:35:43.450Z,100.00
2018-12-23T20:39:02.174Z,100.00
2018-12-23T20:42:30.917Z,100.00
2018-12-23T20:46:26.631Z,100.00
2018-12-23T20:49:48.207Z,100.00
2018-12-23T20:53:10.289Z,100.00
2018-12-23T20:57:07.079Z,100.00
2018-12-23T21:00:37.637Z,100.00
2018-12-23T21:04:01.005Z,100.00
2018-12-23T21:07:41.412Z,100.00
2018-12-23T21:11:21.639Z,100.00
2018-12-23T21:14:58.514Z,100.00
2018-12-23T21:18:13.938Z,100.00
2018-12-23T21:21:44.533Z,100.00
2018-12-23T21:25:23.425Z,100.00
2018-12-23T21:28:59.334Z,100.00
2018-12-23T21:32:05.987Z,100.00
2018-12-23T21:35:58.141Z,100.00
2018-12-23T21:39:53.655Z,100.00
2018-12-23T21:43:33.092Z,100.00
2018-12-23T21:46:58.939Z,100.00
2018-12-23T21:50:22.504Z,100.00
2018-12-23T21:54:14.027Z,100.00
2018-12-23T21:57:41.167Z,100.00
2018-12-23T22:01:03.353Z,100.00
2018-12-23T22:04:54.919Z,100.00
2018-12-23T22:08:45.875Z,100.00
2018-12-23T22:11:34.417Z,100.00
2018-12-23T22:14:06.268Z,100.00
2018-12-23T22:16:38.067Z,100.00
2018-12-23T22:19:10.185Z,100.00
2018-12-23T22:21:42.061Z,100.00
2018-12-23T22:24:14.618Z,100.00
2018-12-23T22:26:46.759Z,100.00
2018-12-23T22:29:18.635Z,100.00
2018-12-23T22:31:50.433Z,100.00
2018-12-23T22:34:22.322Z,100.00
2018-12-23T22:36:54.125Z,100.00
2018-12-23T22:39:25.977Z,100.00
2018-12-23T22:41:57.776Z,100.00
2018-12-23T22:44:29.553Z,100.00
2018-12-23T22:47:01.347Z,100.00
2018-12-23T22:49:33.139Z,100.00
2018-12-23T22:52:04.930Z,100.00
2018-12-23T22:54:36.995Z,100.00
2018-12-23T22:57:09.357Z,100.00
2018-12-23T22:59:41.239Z,100.00
2018-12-23T23:02:13.099Z,100.00
2018-12-23T23:04:44.890Z,100.00
2018-12-23T23:07:16.795Z,100.00
2018-12-23T23:09:48.913Z,100.00
2018-12-23T23:12:23.849Z,100.00
2018-12-23T23:14:55.706Z,100.00
2018-12-23T23:17:27.674Z,100.00
2018-12-23T23:19:59.889Z,100.00
2018-12-23T23:22:31.767Z,100.00
2018-12-23T23:25:03.621Z,100.00
2018-12-23T23:27:35.671Z,100.00
2018-12-23T23:30:07.795Z,100.00
2018-12-23T23:32:39.738Z,100.00
2018-12-23T23:35:11.597Z,100.00
2018-12-23T23:37:43.468Z,100.00
2018-12-23T23:40:15.324Z,100.00
2018-12-23T23:42:47.265Z,100.00
2018-12-23T23:45:19.039Z,100.00
2018-12-23T23:47:50.996Z,100.00
2018-12-23T23:50:23.598Z,100.00
2018-12-23T23:52:55.445Z,100.00
2018-12-23T23:55:27.376Z,100.00
2018-12-23T23:57:59.169Z,100.00
